Time;durP1;ratioP1;P1;durP2;ratioP2;P2;SDS_P1;SDS_P2;PMS_P1;PMS_P2;Temp;Humidity;BMP_temperature;BMP_pressure;BME280_temperature;BME280_humidity;BME280_pressure;Samples;Min_cycle;Max_cycle;Signal;HPM_P1;HPM_P2
2024/02/01 00:00:24;;;;;;;6.87;4.33;;;5.70;99.90;;;;;;4989463;28;20200;-61
2024/02/01 00:02:49;;;;;;;6.97;4.77;;;5.70;99.90;;;;;;5001573;28;20196;-61
2024/02/01 00:05:15;;;;;;;6.60;5.10;;;5.70;99.90;;;;;;5005391;28;20441;-61
2024/02/01 00:07:41;;;;;;;5.20;4.63;;;5.70;99.90;;;;;;4988181;28;20189;-61
2024/02/01 00:10:07;;;;;;;6.53;4.90;;;5.70;99.90;;;;;;4991948;28;20236;-60
2024/02/01 00:12:32;;;;;;;6.57;5.10;;;5.70;99.90;;;;;;4995653;28;20359;-61
2024/02/01 00:14:58;;;;;;;6.50;4.90;;;5.70;99.90;;;;;;4998869;28;20421;-61
2024/02/01 00:17:24;;;;;;;7.83;5.23;;;5.70;99.90;;;;;;4993962;28;20195;-61
2024/02/01 00:19:49;;;;;;;6.27;4.13;;;5.60;99.90;;;;;;5003382;28;20339;-61
2024/02/01 00:22:15;;;;;;;6.20;5.00;;;5.60;99.90;;;;;;4998732;28;20259;-61
2024/02/01 00:24:40;;;;;;;6.60;5.00;;;5.60;99.90;;;;;;4991981;28;20192;-61
2024/02/01 00:27:06;;;;;;;5.70;4.67;;;5.60;99.90;;;;;;4994329;28;20334;-61
2024/02/01 00:29:31;;;;;;;9.53;4.97;;;5.60;99.90;;;;;;5002069;28;20265;-62
2024/02/01 00:31:57;;;;;;;6.93;5.40;;;5.60;99.90;;;;;;4993527;28;20308;-62
2024/02/01 00:34:22;;;;;;;6.80;5.03;;;5.60;99.90;;;;;;4991606;28;20204;-62
2024/02/01 00:36:49;;;;;;;6.90;6.30;;;5.60;99.90;;;;;;5003237;28;20183;-62
2024/02/01 00:39:14;;;;;;;6.13;4.80;;;5.60;99.90;;;;;;4996862;28;20217;-61
2024/02/01 00:41:40;;;;;;;7.90;5.10;;;5.70;99.90;;;;;;4997531;28;20429;-62
2024/02/01 00:44:05;;;;;;;5.60;4.87;;;5.70;99.90;;;;;;4998304;28;20280;-61
2024/02/01 00:46:31;;;;;;;6.80;6.10;;;5.70;99.90;;;;;;4990445;28;20179;-61
2024/02/01 00:48:56;;;;;;;6.23;5.20;;;5.70;99.90;;;;;;5000171;28;20191;-60
2024/02/01 00:51:22;;;;;;;6.00;4.77;;;5.70;99.90;;;;;;5002083;28;20299;-62
2024/02/01 00:53:48;;;;;;;6.63;4.27;;;5.70;99.90;;;;;;5002366;28;20378;-61
2024/02/01 00:56:13;;;;;;;5.50;4.63;;;5.70;99.90;;;;;;5004768;28;20616;-63
2024/02/01 00:58:39;;;;;;;7.80;5.17;;;5.70;99.90;;;;;;4996432;28;20236;-61
2024/02/01 01:01:05;;;;;;;9.03;5.70;;;5.70;99.90;;;;;;4987709;28;20245;-61
2024/02/01 01:03:31;;;;;;;6.07;5.00;;;5.70;99.90;;;;;;4992269;28;20593;-61
2024/02/01 01:05:56;;;;;;;6.67;4.80;;;5.70;99.90;;;;;;4985948;28;20189;-62
2024/02/01 01:08:22;;;;;;;7.03;5.53;;;5.70;99.90;;;;;;4988900;28;20429;-60
2024/02/01 01:10:47;;;;;;;6.33;4.20;;;5.70;99.90;;;;;;4993573;28;20186;-62
2024/02/01 01:13:13;;;;;;;7.10;5.77;;;5.70;99.90;;;;;;5000421;28;20196;-61
2024/02/01 01:15:38;;;;;;;5.80;5.20;;;5.80;99.90;;;;;;5008497;28;20672;-61
2024/02/01 01:18:04;;;;;;;5.60;5.10;;;5.70;99.90;;;;;;4999864;28;20297;-61
2024/02/01 01:20:30;;;;;;;7.43;5.50;;;5.80;99.90;;;;;;5009025;28;20192;-59
2024/02/01 01:22:55;;;;;;;4.90;4.40;;;5.80;99.90;;;;;;5002995;28;20833;-57
2024/02/01 01:25:21;;;;;;;7.80;5.93;;;5.80;99.90;;;;;;5004203;28;20189;-60
2024/02/01 01:27:47;;;;;;;5.77;5.00;;;5.80;99.90;;;;;;4999875;28;20173;-61
2024/02/01 01:30:13;;;;;;;6.60;5.53;;;5.80;99.90;;;;;;4992358;28;20186;-62
2024/02/01 01:32:38;;;;;;;5.90;5.27;;;5.80;99.90;;;;;;4991006;28;20466;-62
2024/02/01 01:35:04;;;;;;;7.20;5.70;;;5.80;99.90;;;;;;4990995;28;20177;-62
2024/02/01 01:37:32;;;;;;;10.10;5.70;;;5.70;99.90;;;;;;4990851;28;20206;-62
2024/02/01 01:39:58;;;;;;;7.70;5.80;;;5.70;99.90;;;;;;4990589;28;20468;-62
2024/02/01 01:42:23;;;;;;;6.33;4.93;;;5.80;99.90;;;;;;4990341;28;20424;-62
2024/02/01 01:44:49;;;;;;;8.63;6.67;;;5.80;99.90;;;;;;4988658;28;20181;-61
2024/02/01 01:47:15;;;;;;;5.47;4.97;;;5.80;99.90;;;;;;4990627;28;20193;-62
2024/02/01 01:49:41;;;;;;;7.90;5.63;;;5.80;99.90;;;;;;4992461;28;20204;-62
2024/02/01 01:52:08;;;;;;;8.83;6.10;;;5.80;99.90;;;;;;4990568;28;20268;-61
2024/02/01 01:54:36;;;;;;;9.70;5.87;;;5.80;99.90;;;;;;4989439;28;20476;-62
2024/02/01 01:57:03;;;;;;;7.20;5.80;;;5.80;99.90;;;;;;4990875;28;20988;-62
2024/02/01 01:59:28;;;;;;;9.03;6.93;;;5.80;99.90;;;;;;4994624;28;20465;-62
2024/02/01 02:01:54;;;;;;;10.27;6.17;;;5.80;99.90;;;;;;4982083;28;20965;-62
2024/02/01 02:04:21;;;;;;;5.63;5.10;;;5.80;99.90;;;;;;4990932;28;20212;-62
2024/02/01 02:06:48;;;;;;;8.83;6.23;;;5.90;99.90;;;;;;4989899;28;20174;-62
2024/02/01 02:09:14;;;;;;;7.43;6.40;;;5.80;99.90;;;;;;4990436;28;20444;-62
2024/02/01 02:11:45;;;;;;;5.13;4.63;;;5.90;99.90;;;;;;4990244;28;20417;-62
2024/02/01 02:14:12;;;;;;;6.23;4.93;;;5.90;99.90;;;;;;4988013;28;20443;-62
2024/02/01 02:16:38;;;;;;;5.70;5.00;;;5.90;99.90;;;;;;4978382;28;20405;-63
2024/02/01 02:19:09;;;;;;;5.63;5.03;;;5.90;99.90;;;;;;4989197;28;20528;-63
2024/02/01 02:21:42;;;;;;;5.90;5.30;;;5.90;99.90;;;;;;4986381;28;20784;-62
2024/02/01 02:24:09;;;;;;;6.33;5.50;;;5.90;99.90;;;;;;4990297;28;20520;-62
2024/02/01 02:26:34;;;;;;;5.93;5.13;;;5.90;99.90;;;;;;4990275;28;20413;-62
2024/02/01 02:29:02;;;;;;;6.47;5.17;;;5.90;99.90;;;;;;4997193;28;20422;-62
2024/02/01 02:31:27;;;;;;;5.20;4.70;;;5.90;99.90;;;;;;4993849;28;20660;-62
2024/02/01 02:33:53;;;;;;;7.10;5.67;;;5.90;99.90;;;;;;4988144;28;20436;-61
2024/02/01 02:36:19;;;;;;;7.20;6.50;;;5.80;99.90;;;;;;4991588;28;20196;-60
2024/02/01 02:38:44;;;;;;;6.20;5.23;;;5.60;99.90;;;;;;4994123;28;20313;-61
2024/02/01 02:41:10;;;;;;;6.77;5.77;;;5.60;99.90;;;;;;4994762;28;20165;-60
2024/02/01 02:43:35;;;;;;;8.27;6.80;;;5.50;99.90;;;;;;4993446;28;20193;-61
2024/02/01 02:46:01;;;;;;;6.80;6.10;;;5.40;99.90;;;;;;4999450;28;20621;-61
2024/02/01 02:48:26;;;;;;;9.17;5.90;;;5.40;99.90;;;;;;4992018;28;20182;-61
2024/02/01 02:50:52;;;;;;;8.20;5.53;;;5.30;99.90;;;;;;4993016;28;20517;-62
2024/02/01 02:53:17;;;;;;;8.13;6.57;;;5.30;99.90;;;;;;4992806;28;20209;-61
2024/02/01 02:55:43;;;;;;;7.50;6.90;;;5.30;99.90;;;;;;5001278;28;20188;-62
2024/02/01 02:58:09;;;;;;;12.27;7.53;;;5.30;99.90;;;;;;5003989;28;20169;-61
2024/02/01 03:00:34;;;;;;;10.40;5.60;;;5.30;99.90;;;;;;4985153;28;20188;-62
2024/02/01 03:03:00;;;;;;;6.97;5.97;;;5.30;99.90;;;;;;4993325;28;20717;-63
2024/02/01 03:05:26;;;;;;;9.77;6.60;;;5.30;99.90;;;;;;4987067;28;20184;-62
2024/02/01 03:07:53;;;;;;;8.63;6.57;;;5.30;99.90;;;;;;4990400;28;20173;-62
2024/02/01 03:10:19;;;;;;;8.40;6.10;;;5.30;99.90;;;;;;4995347;28;20420;-63
2024/02/01 03:12:45;;;;;;;7.10;5.80;;;5.30;99.90;;;;;;4994664;28;20457;-62
2024/02/01 03:15:11;;;;;;;8.60;6.20;;;5.30;99.90;;;;;;4995769;28;20435;-62
2024/02/01 03:17:40;;;;;;;7.90;6.73;;;5.30;99.90;;;;;;4978806;28;20184;-62
2024/02/01 03:20:22;;;;;;;8.63;6.67;;;5.20;99.90;;;;;;4993801;28;20409;-60
2024/02/01 03:22:48;;;;;;;8.03;5.83;;;5.20;99.90;;;;;;4984749;28;20913;-58
2024/02/01 03:25:14;;;;;;;8.60;5.97;;;5.20;99.90;;;;;;4988420;28;20557;-60
2024/02/01 03:27:42;;;;;;;9.40;7.03;;;5.20;99.90;;;;;;4986274;28;20503;-60
2024/02/01 03:30:12;;;;;;;9.50;6.90;;;5.20;99.90;;;;;;4988686;28;20214;-60
2024/02/01 03:32:41;;;;;;;8.07;6.27;;;5.10;99.90;;;;;;4983126;28;20441;-60
2024/02/01 03:35:10;;;;;;;8.60;6.13;;;5.20;99.90;;;;;;4982225;28;20440;-60
2024/02/01 03:37:35;;;;;;;13.40;6.47;;;5.10;99.90;;;;;;4987364;28;20457;-57
2024/02/01 03:40:01;;;;;;;9.03;7.40;;;5.10;99.90;;;;;;4980273;28;20563;-59
2024/02/01 03:42:26;;;;;;;10.60;7.03;;;5.10;99.90;;;;;;4990525;28;20664;-56
2024/02/01 03:44:52;;;;;;;7.87;6.80;;;5.10;99.90;;;;;;4993148;28;20171;-58
2024/02/01 03:47:18;;;;;;;10.00;6.60;;;5.10;99.90;;;;;;4993505;28;20196;-61
2024/02/01 03:49:43;;;;;;;8.43;6.97;;;5.10;99.90;;;;;;5000621;28;20208;-58
2024/02/01 03:52:09;;;;;;;11.30;7.37;;;5.10;99.90;;;;;;4990340;28;20622;-62
2024/02/01 03:54:36;;;;;;;8.40;7.03;;;5.10;99.90;;;;;;4996847;28;20201;-62
2024/02/01 03:57:02;;;;;;;8.80;7.90;;;5.00;99.90;;;;;;4994456;28;20420;-59
2024/02/01 03:59:28;;;;;;;11.07;7.10;;;5.00;99.90;;;;;;5000156;28;20462;-59
2024/02/01 04:01:53;;;;;;;7.77;6.97;;;5.00;99.90;;;;;;4992139;28;20176;-58
2024/02/01 04:04:20;;;;;;;7.57;6.47;;;5.00;99.90;;;;;;4992219;28;20223;-62
2024/02/01 04:06:46;;;;;;;9.03;6.97;;;5.10;99.90;;;;;;4991632;28;20201;-58
2024/02/01 04:09:12;;;;;;;10.87;7.60;;;5.10;99.90;;;;;;4991832;28;20452;-61
2024/02/01 04:11:37;;;;;;;7.63;6.90;;;5.10;99.90;;;;;;4992381;28;20188;-62
2024/02/01 04:14:03;;;;;;;8.33;6.50;;;5.10;99.90;;;;;;4995246;28;20193;-62
2024/02/01 04:16:29;;;;;;;7.60;6.57;;;5.10;99.90;;;;;;4990704;28;20609;-62
2024/02/01 04:18:58;;;;;;;8.53;7.07;;;5.10;99.90;;;;;;4992419;28;20745;-62
2024/02/01 04:21:27;;;;;;;9.20;7.40;;;5.10;99.90;;;;;;4991930;28;20181;-62
2024/02/01 04:23:52;;;;;;;10.10;7.70;;;5.10;99.90;;;;;;4992882;28;20463;-63
2024/02/01 04:26:18;;;;;;;10.00;7.77;;;5.20;99.90;;;;;;4989218;28;21028;-61
2024/02/01 04:28:44;;;;;;;13.87;7.87;;;5.20;99.90;;;;;;4992425;28;20658;-62
2024/02/01 04:31:10;;;;;;;9.60;7.87;;;5.20;99.90;;;;;;4991975;28;20169;-60
2024/02/01 04:33:40;;;;;;;9.43;7.27;;;5.20;99.90;;;;;;4992847;28;20875;-62
2024/02/01 04:36:07;;;;;;;8.87;7.30;;;5.20;99.90;;;;;;4991628;28;20753;-62
2024/02/01 04:38:33;;;;;;;9.27;8.40;;;5.30;99.90;;;;;;4991672;28;20451;-61
2024/02/01 04:40:59;;;;;;;9.13;8.17;;;5.30;99.90;;;;;;4991798;28;20419;-61
2024/02/01 04:43:24;;;;;;;10.00;8.27;;;5.30;99.90;;;;;;4990950;28;20205;-61
2024/02/01 04:45:50;;;;;;;9.80;8.33;;;5.30;99.90;;;;;;4991950;28;20199;-60
2024/02/01 04:48:15;;;;;;;9.73;7.60;;;5.30;99.90;;;;;;5000377;28;20436;-60
2024/02/01 04:50:41;;;;;;;9.80;8.40;;;5.30;99.90;;;;;;4999357;28;20597;-60
2024/02/01 04:53:07;;;;;;;9.47;7.77;;;5.30;99.90;;;;;;4996425;28;20370;-61
2024/02/01 04:55:33;;;;;;;15.20;8.37;;;5.30;99.90;;;;;;4992646;28;20635;-61
2024/02/01 04:57:59;;;;;;;15.93;7.93;;;5.30;99.90;;;;;;4989290;28;20420;-61
2024/02/01 05:00:26;;;;;;;10.30;8.23;;;5.30;99.90;;;;;;4998062;28;20445;-61
2024/02/01 05:02:52;;;;;;;10.20;8.73;;;5.40;99.90;;;;;;4991362;28;20665;-61
2024/02/01 05:05:20;;;;;;;11.97;8.97;;;5.30;99.90;;;;;;4991659;28;20427;-61
2024/02/01 05:07:45;;;;;;;9.73;8.13;;;5.40;99.90;;;;;;4985456;28;20524;-62
2024/02/01 05:10:13;;;;;;;14.77;8.53;;;5.40;99.90;;;;;;4990928;28;20487;-61
2024/02/01 05:12:39;;;;;;;11.10;8.00;;;5.40;99.90;;;;;;4990973;28;20201;-60
2024/02/01 05:15:07;;;;;;;15.03;10.07;;;5.40;99.90;;;;;;4992176;28;20486;-60
2024/02/01 05:17:33;;;;;;;14.10;9.40;;;5.40;99.90;;;;;;4994634;28;21122;-61
2024/02/01 05:19:59;;;;;;;11.83;9.50;;;5.50;99.90;;;;;;4989581;28;20499;-62
2024/02/01 05:22:28;;;;;;;12.93;9.90;;;5.60;99.90;;;;;;4990830;28;20463;-61
2024/02/01 05:24:54;;;;;;;12.33;10.07;;;5.60;99.90;;;;;;4990816;28;20185;-61
2024/02/01 05:27:20;;;;;;;11.03;8.87;;;5.70;99.90;;;;;;4991839;28;20782;-62
2024/02/01 05:29:49;;;;;;;13.00;9.37;;;5.70;99.90;;;;;;4990862;28;20458;-61
2024/02/01 05:32:15;;;;;;;10.83;8.83;;;5.70;99.90;;;;;;4995320;28;20428;-61
2024/02/01 05:34:41;;;;;;;12.87;9.80;;;5.80;99.90;;;;;;4997829;28;20793;-62
2024/02/01 05:37:07;;;;;;;13.97;9.47;;;5.80;99.90;;;;;;4987332;28;20420;-61
2024/02/01 05:39:33;;;;;;;14.20;10.03;;;5.80;99.90;;;;;;4990346;28;20259;-62
2024/02/01 05:42:00;;;;;;;13.00;9.37;;;5.80;99.90;;;;;;4990573;28;20416;-61
2024/02/01 05:44:27;;;;;;;18.97;9.67;;;5.80;99.90;;;;;;4997096;28;20280;-60
2024/02/01 05:46:55;;;;;;;13.07;8.63;;;5.80;99.90;;;;;;4997455;28;20907;-60
2024/02/01 05:49:28;;;;;;;13.17;10.10;;;5.90;99.90;;;;;;4998524;28;20423;-60
2024/02/01 05:51:54;;;;;;;12.53;9.20;;;5.90;99.90;;;;;;4981815;28;20436;-61
2024/02/01 05:54:21;;;;;;;13.30;9.90;;;5.90;99.90;;;;;;4990158;28;20433;-60
2024/02/01 05:56:47;;;;;;;11.40;8.77;;;5.80;99.90;;;;;;4990345;28;20424;-61
2024/02/01 05:59:15;;;;;;;11.67;9.80;;;5.80;99.90;;;;;;4990390;28;20812;-62
2024/02/01 06:01:42;;;;;;;12.63;9.70;;;5.90;99.90;;;;;;4990334;28;20502;-62
2024/02/01 06:04:08;;;;;;;12.57;10.77;;;5.90;99.90;;;;;;4986941;28;20467;-62
2024/02/01 06:06:45;;;;;;;12.60;10.30;;;5.90;99.90;;;;;;4989781;28;20910;-62
2024/02/01 06:09:12;;;;;;;15.67;10.10;;;5.90;99.90;;;;;;4989604;28;20522;-62
2024/02/01 06:11:41;;;;;;;12.87;9.60;;;5.90;99.90;;;;;;4987263;28;20810;-62
2024/02/01 06:14:07;;;;;;;13.30;10.17;;;5.90;99.90;;;;;;4996454;28;20444;-62
2024/02/01 06:16:33;;;;;;;13.43;9.43;;;5.90;99.90;;;;;;4994629;28;20427;-62
2024/02/01 06:18:59;;;;;;;13.13;10.50;;;6.00;99.90;;;;;;4990103;28;20190;-61
2024/02/01 06:21:25;;;;;;;10.53;9.20;;;5.90;99.90;;;;;;4998715;28;20464;-61
2024/02/01 06:23:50;;;;;;;12.93;10.53;;;5.90;99.90;;;;;;4991522;28;20827;-61
2024/02/01 06:26:26;;;;;;;12.00;9.90;;;5.90;99.90;;;;;;4995141;28;20180;-61
2024/02/01 06:29:07;;;;;;;14.83;11.60;;;5.90;99.90;;;;;;4989947;28;20481;-61
2024/02/01 06:31:37;;;;;;;16.73;9.40;;;5.90;99.90;;;;;;4989861;28;20420;-61
2024/02/01 06:34:04;;;;;;;14.33;10.70;;;5.90;99.90;;;;;;4990469;28;20515;-62
2024/02/01 06:36:34;;;;;;;12.80;10.60;;;6.00;99.90;;;;;;4993047;28;20419;-61
2024/02/01 06:41:29;;;;;;;13.17;10.40;;;6.00;99.90;;;;;;4991471;28;20437;-62
2024/02/01 06:47:06;;;;;;;15.87;11.60;;;6.00;99.90;;;;;;4995030;28;20416;-61
2024/02/01 06:52:43;;;;;;;13.47;11.03;;;6.10;99.90;;;;;;4998437;28;20826;-62
2024/02/01 06:58:03;;;;;;;16.17;11.57;;;6.10;99.90;;;;;;4997006;28;20455;-62
2024/02/01 07:00:53;;;;;;;12.60;11.03;;;6.20;99.90;;;;;;4990694;28;20412;-62
2024/02/01 07:08:44;;;;;;;14.30;11.93;;;6.30;99.90;;;;;;4996880;28;20514;-61
2024/02/01 07:16:24;;;;;;;18.63;10.90;;;6.30;99.90;;;;;;4988276;28;20417;-62
2024/02/01 07:22:00;;;;;;;15.13;10.17;;;6.40;99.90;;;;;;4994191;28;20464;-62
2024/02/01 07:59:59;;;;;;;8.50;7.70;;;6.70;99.90;;;;;;4983302;28;20469;-61
2024/02/01 08:07:57;;;;;;;6.00;5.50;;;6.80;99.90;;;;;;4980812;28;20405;-60
2024/02/01 08:10:24;;;;;;;6.77;4.27;;;6.80;99.90;;;;;;4981766;28;20446;-61
2024/02/01 08:12:50;;;;;;;7.03;6.07;;;6.90;99.90;;;;;;4986675;28;20196;-61
2024/02/01 08:15:19;;;;;;;10.50;5.60;;;7.00;99.90;;;;;;4985011;28;20421;-58
2024/02/01 08:17:46;;;;;;;6.73;5.80;;;7.20;99.90;;;;;;4986837;28;20417;-61
2024/02/01 08:20:13;;;;;;;6.60;5.33;;;7.10;99.90;;;;;;4980892;28;20740;-61
2024/02/01 08:22:41;;;;;;;5.90;5.00;;;7.10;99.90;;;;;;4985292;28;20914;-62
2024/02/01 08:25:08;;;;;;;4.97;4.47;;;7.00;99.90;;;;;;4979091;28;20426;-62
2024/02/01 08:27:34;;;;;;;7.73;4.77;;;6.90;99.90;;;;;;4983055;28;20513;-62
2024/02/01 08:30:12;;;;;;;9.90;5.57;;;7.20;99.90;;;;;;4988370;28;20440;-62
2024/02/01 08:32:44;;;;;;;5.93;5.40;;;7.80;99.90;;;;;;5003823;28;20486;-62
2024/02/01 08:35:10;;;;;;;4.50;3.87;;;8.10;99.90;;;;;;4988949;28;20446;-62
2024/02/01 08:37:39;;;;;;;6.70;3.53;;;8.60;99.90;;;;;;4984943;28;20442;-62
2024/02/01 08:40:20;;;;;;;8.70;4.27;;;8.30;99.90;;;;;;4983952;28;20960;-62
2024/02/01 08:42:47;;;;;;;9.67;4.60;;;8.80;99.90;;;;;;4986427;28;20864;-62
2024/02/01 08:45:14;;;;;;;11.60;3.37;;;8.30;99.90;;;;;;4991962;28;20521;-62
2024/02/01 08:47:40;;;;;;;4.43;4.03;;;8.20;99.90;;;;;;4991367;28;20436;-61
2024/02/01 08:50:07;;;;;;;4.70;3.87;;;7.60;99.90;;;;;;4991746;28;20498;-62
2024/02/01 08:52:45;;;;;;;6.60;4.10;;;7.50;99.90;;;;;;4991372;28;20414;-61
2024/02/01 08:55:17;;;;;;;6.30;3.60;;;7.70;99.90;;;;;;4985465;28;20448;-59
2024/02/01 08:57:44;;;;;;;5.90;3.13;;;8.10;99.90;;;;;;4991602;28;20473;-60
2024/02/01 09:00:29;;;;;;;4.73;3.50;;;8.00;99.90;;;;;;4989244;28;20525;-60
2024/02/01 09:03:06;;;;;;;10.30;3.50;;;8.30;99.90;;;;;;4990992;28;20443;-61
2024/02/01 09:05:40;;;;;;;10.73;3.83;;;8.10;99.90;;;;;;4991987;28;20489;-62
2024/02/01 09:08:35;;;;;;;7.27;3.53;;;8.40;99.90;;;;;;4990876;28;20483;-61
2024/02/01 09:11:09;;;;;;;2.90;2.33;;;8.80;99.90;;;;;;4989134;28;20432;-60
2024/02/01 09:13:35;;;;;;;6.47;3.20;;;9.60;99.90;;;;;;4991165;28;20942;-61
2024/02/01 09:16:01;;;;;;;6.50;3.20;;;8.70;99.90;;;;;;4990886;28;20418;-60
2024/02/01 09:18:27;;;;;;;3.03;2.73;;;8.40;99.90;;;;;;4991508;28;20211;-61
2024/02/01 09:20:52;;;;;;;5.17;3.13;;;8.50;99.90;;;;;;4991126;28;20181;-60
2024/02/01 09:23:18;;;;;;;7.73;3.20;;;8.60;99.90;;;;;;4990916;28;20494;-61
2024/02/01 09:25:44;;;;;;;5.90;4.13;;;8.10;99.90;;;;;;4991064;28;20574;-61
2024/02/01 09:28:14;;;;;;;4.97;2.53;;;8.40;99.90;;;;;;4988715;28;20528;-61
2024/02/01 09:30:51;;;;;;;15.37;3.27;;;8.30;99.90;;;;;;4990794;28;20185;-62
2024/02/01 09:33:20;;;;;;;7.37;2.63;;;8.10;99.90;;;;;;4990741;28;20982;-61
2024/02/01 09:35:46;;;;;;;9.33;3.10;;;7.90;99.90;;;;;;4992320;28;20440;-59
2024/02/01 09:38:13;;;;;;;5.40;2.40;;;8.20;99.90;;;;;;4994837;28;20884;-62
2024/02/01 09:40:41;;;;;;;5.73;2.67;;;8.00;99.90;;;;;;4990142;28;20497;-62
2024/02/01 09:43:17;;;;;;;7.50;3.57;;;7.90;99.90;;;;;;4988960;28;20462;-60
2024/02/01 09:45:44;;;;;;;3.80;2.20;;;8.30;99.90;;;;;;4990394;28;20411;-62
2024/02/01 09:48:15;;;;;;;7.10;2.80;;;8.20;99.90;;;;;;4990671;28;20783;-62
2024/02/01 09:50:47;;;;;;;6.57;2.57;;;8.00;99.90;;;;;;4990541;28;20408;-62
2024/02/01 09:53:12;;;;;;;10.93;3.40;;;7.80;99.90;;;;;;4990863;28;20534;-62
2024/02/01 09:55:38;;;;;;;6.23;2.57;;;7.80;99.90;;;;;;4990464;28;20844;-60
2024/02/01 09:58:04;;;;;;;5.70;2.40;;;7.70;99.90;;;;;;4990604;28;20966;-61
2024/02/01 10:00:33;;;;;;;6.60;2.50;;;7.80;99.90;;;;;;4988811;28;20279;-62
2024/02/01 10:02:59;;;;;;;5.70;2.27;;;8.00;99.90;;;;;;4990567;28;21010;-63
2024/02/01 10:05:28;;;;;;;5.30;3.33;;;7.90;99.90;;;;;;4990538;28;20503;-62
2024/02/01 10:07:55;;;;;;;6.10;2.53;;;8.20;99.90;;;;;;4990220;28;20179;-61
2024/02/01 10:10:22;;;;;;;5.47;1.97;;;8.00;99.90;;;;;;4990259;28;21115;-62
2024/02/01 10:12:47;;;;;;;7.73;2.40;;;7.90;99.90;;;;;;4982928;28;20452;-62
2024/02/01 10:15:19;;;;;;;6.37;3.23;;;7.90;99.90;;;;;;4992131;28;20925;-61
2024/02/01 10:17:51;;;;;;;10.23;2.27;;;8.00;99.90;;;;;;4990166;28;20172;-61
2024/02/01 10:20:34;;;;;;;8.43;2.67;;;8.20;99.90;;;;;;4985011;28;20502;-61
2024/02/01 10:23:04;;;;;;;7.17;2.57;;;8.20;99.90;;;;;;4989716;28;21063;-62
2024/02/01 10:25:36;;;;;;;6.57;2.27;;;8.30;99.90;;;;;;4990585;28;20791;-61
2024/02/01 10:28:09;;;;;;;8.23;3.33;;;8.50;99.90;;;;;;4991297;28;20499;-60
2024/02/01 10:30:42;;;;;;;7.60;2.63;;;8.30;99.90;;;;;;4989042;28;20468;-62
2024/02/01 10:33:09;;;;;;;10.57;2.03;;;8.30;99.90;;;;;;4992995;28;20795;-61
2024/02/01 10:35:38;;;;;;;12.60;3.17;;;8.60;99.90;;;;;;4995073;28;20421;-61
2024/02/01 10:38:12;;;;;;;5.57;2.10;;;8.70;99.90;;;;;;4990315;28;20414;-63
2024/02/01 10:40:53;;;;;;;5.00;2.17;;;8.70;99.90;;;;;;4985026;28;20423;-63
2024/02/01 10:43:21;;;;;;;8.60;2.80;;;8.50;99.90;;;;;;4985097;28;20464;-62
2024/02/01 10:46:07;;;;;;;10.23;3.00;;;8.20;99.90;;;;;;4991660;28;20426;-62
2024/02/01 10:48:49;;;;;;;13.30;2.70;;;8.30;99.90;;;;;;4993041;28;20952;-62
2024/02/01 10:51:16;;;;;;;13.93;2.17;;;8.60;99.90;;;;;;4988060;28;20786;-62
2024/02/01 10:53:44;;;;;;;5.93;2.20;;;8.60;99.90;;;;;;4990699;28;20928;-63
2024/02/01 10:56:14;;;;;;;6.60;1.97;;;8.60;99.90;;;;;;4999976;28;20402;-62
2024/02/01 10:58:45;;;;;;;5.43;2.60;;;8.50;99.90;;;;;;4994340;28;20997;-62
2024/02/01 11:01:13;;;;;;;3.57;1.93;;;8.40;99.90;;;;;;4994801;28;20871;-62
2024/02/01 11:03:43;;;;;;;9.43;2.73;;;8.40;99.90;;;;;;5001988;28;20424;-62
2024/02/01 11:06:10;;;;;;;7.67;2.57;;;8.20;99.90;;;;;;5003020;28;20502;-62
2024/02/01 11:08:36;;;;;;;7.10;1.73;;;7.90;99.90;;;;;;4995147;28;20487;-60
2024/02/01 11:11:15;;;;;;;5.20;1.93;;;7.90;99.90;;;;;;4990872;28;20841;-62
2024/02/01 11:13:43;;;;;;;5.40;2.23;;;7.90;99.90;;;;;;4994214;28;20202;-63
2024/02/01 11:16:08;;;;;;;6.27;2.40;;;7.90;99.90;;;;;;4996889;28;20515;-63
2024/02/01 11:18:37;;;;;;;12.57;3.17;;;7.90;99.90;;;;;;4997381;28;20451;-62
2024/02/01 11:21:06;;;;;;;7.03;2.87;;;7.80;99.90;;;;;;4996286;28;20178;-63
2024/02/01 11:23:39;;;;;;;8.03;2.23;;;7.70;99.90;;;;;;4998773;28;20574;-63
2024/02/01 11:26:15;;;;;;;8.17;2.40;;;7.70;99.90;;;;;;4996711;28;20412;-62
2024/02/01 11:28:47;;;;;;;7.63;2.43;;;7.80;99.90;;;;;;4993052;28;20991;-62
2024/02/01 11:31:18;;;;;;;2.50;2.10;;;7.90;99.90;;;;;;4984591;28;20911;-63
2024/02/01 11:33:44;;;;;;;9.37;2.97;;;7.90;99.90;;;;;;4981236;28;20449;-63
2024/02/01 11:36:10;;;;;;;9.13;3.30;;;7.80;99.90;;;;;;5001021;28;20427;-62
2024/02/01 11:38:40;;;;;;;3.50;1.50;;;7.70;99.90;;;;;;4986768;28;20483;-63
2024/02/01 11:41:06;;;;;;;7.10;2.10;;;7.70;99.90;;;;;;5002177;28;20408;-62
2024/02/01 11:43:33;;;;;;;12.90;3.10;;;7.60;99.90;;;;;;4995542;28;20863;-62
2024/02/01 11:45:59;;;;;;;6.87;3.30;;;7.60;99.90;;;;;;5000765;28;20452;-63
2024/02/01 11:48:25;;;;;;;3.50;2.57;;;7.60;99.90;;;;;;4996687;28;20493;-63
2024/02/01 11:50:59;;;;;;;7.07;2.20;;;7.50;99.90;;;;;;4991759;28;20874;-61
2024/02/01 11:53:27;;;;;;;5.17;2.83;;;7.50;99.90;;;;;;4985064;28;20435;-62
2024/02/01 11:55:54;;;;;;;6.63;2.43;;;7.60;99.90;;;;;;4980544;28;20957;-63
2024/02/01 11:58:22;;;;;;;5.20;1.80;;;7.60;99.90;;;;;;4996744;28;20417;-62
2024/02/01 12:00:55;;;;;;;9.00;2.23;;;7.70;99.90;;;;;;4987147;28;20488;-63
2024/02/01 12:03:21;;;;;;;5.73;2.07;;;7.70;99.90;;;;;;4986695;28;20460;-62
2024/02/01 12:05:48;;;;;;;10.73;2.30;;;7.80;99.90;;;;;;4980143;28;20605;-63
2024/02/01 12:08:14;;;;;;;9.77;3.03;;;7.90;99.90;;;;;;4997455;28;20411;-61
2024/02/01 12:10:45;;;;;;;8.17;2.10;;;7.90;99.90;;;;;;4981794;28;20408;-60
2024/02/01 12:13:13;;;;;;;8.47;2.10;;;7.80;99.90;;;;;;4982670;28;20520;-60
2024/02/01 12:15:48;;;;;;;5.30;2.27;;;7.90;99.90;;;;;;4986544;28;20423;-62
2024/02/01 12:18:13;;;;;;;14.00;2.60;;;8.00;99.90;;;;;;4988382;28;20420;-61
2024/02/01 12:20:42;;;;;;;7.63;2.90;;;8.00;99.90;;;;;;5004343;28;20462;-64
2024/02/01 12:23:10;;;;;;;9.40;3.13;;;7.90;99.90;;;;;;4991276;28;20544;-60
2024/02/01 12:25:36;;;;;;;8.47;2.20;;;7.80;99.90;;;;;;4993586;28;20422;-59
2024/02/01 12:28:03;;;;;;;4.30;2.10;;;7.90;99.90;;;;;;5000146;28;20502;-60
2024/02/01 12:30:31;;;;;;;5.00;1.70;;;8.00;99.90;;;;;;4997760;28;20527;-63
2024/02/01 12:32:57;;;;;;;7.30;2.43;;;8.00;99.90;;;;;;4997227;28;20453;-62
2024/02/01 12:35:23;;;;;;;16.20;3.00;;;8.10;99.90;;;;;;4989379;28;20424;-61
2024/02/01 12:37:49;;;;;;;9.47;2.67;;;8.20;99.90;;;;;;4991886;28;20215;-63
2024/02/01 12:40:16;;;;;;;3.23;1.80;;;8.30;99.90;;;;;;4990189;28;20463;-63
2024/02/01 12:42:43;;;;;;;12.77;4.40;;;8.40;99.90;;;;;;4989069;28;20225;-63
2024/02/01 12:45:19;;;;;;;6.40;2.47;;;8.40;99.90;;;;;;4999024;28;20762;-62
2024/02/01 12:47:51;;;;;;;6.33;2.50;;;8.40;99.90;;;;;;4985709;28;20423;-63
2024/02/01 12:50:17;;;;;;;9.23;2.80;;;8.40;99.90;;;;;;4984331;28;20413;-63
2024/02/01 12:52:43;;;;;;;5.83;2.77;;;8.50;99.90;;;;;;4991351;28;20923;-63
2024/02/01 12:55:09;;;;;;;11.80;2.40;;;8.30;99.90;;;;;;4990796;28;20419;-64
2024/02/01 12:57:36;;;;;;;6.90;2.17;;;8.20;99.90;;;;;;4991653;28;20525;-63
2024/02/01 13:00:05;;;;;;;14.17;2.83;;;8.10;99.90;;;;;;4991020;28;20808;-61
2024/02/01 13:02:31;;;;;;;11.43;3.10;;;8.00;99.90;;;;;;4991355;28;20451;-61
2024/02/01 13:04:56;;;;;;;9.43;2.27;;;8.00;99.90;;;;;;4991228;28;20414;-61
2024/02/01 13:07:22;;;;;;;5.90;2.03;;;7.90;99.90;;;;;;4985254;28;20938;-63
2024/02/01 13:09:48;;;;;;;10.20;2.77;;;8.00;99.90;;;;;;4990736;28;20184;-63
2024/02/01 13:12:23;;;;;;;7.93;2.50;;;8.10;99.90;;;;;;4993670;28;20332;-63
2024/02/01 13:14:57;;;;;;;11.77;2.50;;;8.20;99.90;;;;;;4984562;28;20211;-62
2024/02/01 13:17:34;;;;;;;7.30;2.67;;;8.20;99.90;;;;;;4988595;28;20468;-64
2024/02/01 13:20:00;;;;;;;7.03;1.90;;;8.40;99.90;;;;;;4986807;28;21105;-63
2024/02/01 13:22:27;;;;;;;21.13;11.07;;;8.50;99.90;;;;;;4993084;28;20434;-62
2024/02/01 13:24:53;;;;;;;14.83;6.83;;;8.70;99.90;;;;;;4992481;28;20859;-64
2024/02/01 13:27:19;;;;;;;11.73;3.07;;;8.80;99.90;;;;;;4999695;28;20418;-68
2024/02/01 13:29:44;;;;;;;16.33;7.67;;;8.70;99.90;;;;;;4991090;28;20188;-61
2024/02/01 13:32:12;;;;;;;17.73;8.50;;;8.60;99.90;;;;;;4983267;28;20513;-62
2024/02/01 13:34:39;;;;;;;6.13;3.70;;;8.50;99.90;;;;;;4983898;28;20215;-60
2024/02/01 13:37:06;;;;;;;11.07;2.40;;;8.50;99.90;;;;;;4984606;28;20517;-62
2024/02/01 13:39:41;;;;;;;10.70;2.87;;;8.50;99.90;;;;;;4979295;28;20891;-62
2024/02/01 13:42:06;;;;;;;9.20;2.60;;;8.40;99.90;;;;;;4988014;28;20904;-63
2024/02/01 13:44:33;;;;;;;14.40;3.87;;;8.50;99.90;;;;;;4989839;28;20439;-62
2024/02/01 13:47:04;;;;;;;6.90;2.20;;;8.60;99.90;;;;;;4988501;28;20264;-63
2024/02/01 13:49:30;;;;;;;9.63;3.23;;;8.60;99.90;;;;;;4991971;28;20458;-59
2024/02/01 13:51:56;;;;;;;8.30;2.83;;;8.40;99.90;;;;;;4990779;28;20420;-65
2024/02/01 13:54:22;;;;;;;6.77;2.63;;;8.40;99.90;;;;;;4994252;28;20487;-65
2024/02/01 13:56:48;;;;;;;5.63;2.20;;;8.50;99.90;;;;;;4958934;28;20500;-65
2024/02/01 13:59:14;;;;;;;9.00;2.07;;;8.30;99.90;;;;;;4991021;28;20864;-59
2024/02/01 14:01:40;;;;;;;10.13;2.50;;;8.40;99.90;;;;;;4989763;28;20811;-61